sensor_id;sensor_type;location;lat;lon;timestamp;pressure;altitude;pressure_sealevel;temperature;humidity
12360;BME280;6244;51.460;7.090;2023-02-02T00:04:27;101060.59;;;5.66;78.67
12360;BME280;6244;51.460;7.090;2023-02-02T00:09:26;101059.72;;;5.66;79.07
12360;BME280;6244;51.460;7.090;2023-02-02T00:14:24;101053.66;;;5.65;79.07
12360;BME280;6244;51.460;7.090;2023-02-02T00:19:22;101058.06;;;5.63;79.20
12360;BME280;6244;51.460;7.090;2023-02-02T00:24:22;101058.06;;;5.63;79.08
12360;BME280;6244;51.460;7.090;2023-02-02T00:29:21;101056.31;;;5.64;79.41
12360;BME280;6244;51.460;7.090;2023-02-02T00:34:18;101058.03;;;5.65;79.12
12360;BME280;6244;51.460;7.090;2023-02-02T00:39:17;101061.47;;;5.65;79.64
12360;BME280;6244;51.460;7.090;2023-02-02T00:44:15;101056.22;;;5.67;79.28
12360;BME280;6244;51.460;7.090;2023-02-02T00:49:29;101053.59;;;5.68;79.63
12360;BME280;6244;51.460;7.090;2023-02-02T00:54:26;101060.50;;;5.69;79.60
12360;BME280;6244;51.460;7.090;2023-02-02T00:59:24;101064.81;;;5.70;79.47
12360;BME280;6244;51.460;7.090;2023-02-02T01:04:20;101061.34;;;5.71;79.57
12360;BME280;6244;51.460;7.090;2023-02-02T01:09:17;101066.56;;;5.71;79.86
12360;BME280;6244;51.460;7.090;2023-02-02T01:14:13;101066.50;;;5.73;79.93
12360;BME280;6244;51.460;7.090;2023-02-02T01:19:12;101063.88;;;5.74;80.10
12360;BME280;6244;51.460;7.090;2023-02-02T01:24:09;101068.19;;;5.75;79.87
12360;BME280;6244;51.460;7.090;2023-02-02T01:29:05;101059.56;;;5.73;80.00
12360;BME280;6244;51.460;7.090;2023-02-02T01:34:02;101061.22;;;5.76;80.39
12360;BME280;6244;51.460;7.090;2023-02-02T01:39:00;101061.13;;;5.79;80.27
12360;BME280;6244;51.460;7.090;2023-02-02T01:43:58;101064.63;;;5.78;80.34
12360;BME280;6244;51.460;7.090;2023-02-02T01:49:00;101068.94;;;5.79;80.78
12360;BME280;6244;51.460;7.090;2023-02-02T01:54:00;101074.13;;;5.80;80.67
12360;BME280;6244;51.460;7.090;2023-02-02T01:58:57;101074.97;;;5.81;80.70
12360;BME280;6244;51.460;7.090;2023-02-02T02:03:55;101086.19;;;5.84;80.83
12360;BME280;6244;51.460;7.090;2023-02-02T02:08:54;101095.66;;;5.87;80.93
12360;BME280;6244;51.460;7.090;2023-02-02T02:13:54;101095.63;;;5.90;81.10
12360;BME280;6244;51.460;7.090;2023-02-02T02:19:28;101092.13;;;5.89;81.20
12360;BME280;6244;51.460;7.090;2023-02-02T02:31:00;101068.63;;;5.93;81.18
12360;BME280;6244;51.460;7.090;2023-02-02T02:36:05;101075.50;;;5.95;81.21
12360;BME280;6244;51.460;7.090;2023-02-02T02:41:08;101076.34;;;5.97;81.31
12360;BME280;6244;51.460;7.090;2023-02-02T02:46:08;101076.25;;;6.00;81.50
12360;BME280;6244;51.460;7.090;2023-02-02T02:51:37;101088.41;;;6.01;81.50
12360;BME280;6244;51.460;7.090;2023-02-02T02:56:30;101095.28;;;6.04;81.38
12360;BME280;6244;51.460;7.090;2023-02-02T03:01:32;101090.91;;;6.04;81.43
12360;BME280;6244;51.460;7.090;2023-02-02T03:06:36;101091.78;;;6.05;81.33
12360;BME280;6244;51.460;7.090;2023-02-02T03:11:37;101089.97;;;6.07;81.54
12360;BME280;6244;51.460;7.090;2023-02-02T03:16:35;101086.50;;;6.06;81.35
12360;BME280;6244;51.460;7.090;2023-02-02T03:21:32;101083.91;;;6.06;81.29
12360;BME280;6244;51.460;7.090;2023-02-02T03:26:29;101077.81;;;6.07;81.59
12360;BME280;6244;51.460;7.090;2023-02-02T03:31:27;101080.41;;;6.09;81.61
12360;BME280;6244;51.460;7.090;2023-02-02T03:36:24;101080.41;;;6.07;81.59
12360;BME280;6244;51.460;7.090;2023-02-02T03:41:22;101083.00;;;6.09;81.81
12360;BME280;6244;51.460;7.090;2023-02-02T03:46:18;101085.59;;;6.09;81.34
12360;BME280;6244;51.460;7.090;2023-02-02T03:51:16;101088.16;;;6.10;81.35
12360;BME280;6244;51.460;7.090;2023-02-02T03:56:13;101086.41;;;6.11;81.67
12360;BME280;6244;51.460;7.090;2023-02-02T04:01:11;101082.97;;;6.10;81.70
12360;BME280;6244;51.460;7.090;2023-02-02T04:06:08;101076.84;;;6.11;81.33
12360;BME280;6244;51.460;7.090;2023-02-02T04:11:08;101092.47;;;6.11;81.42
12360;BME280;6244;51.460;7.090;2023-02-02T04:16:05;101087.28;;;6.11;81.80
12360;BME280;6244;51.460;7.090;2023-02-02T04:21:02;101092.44;;;6.13;81.74
12360;BME280;6244;51.460;7.090;2023-02-02T04:25:59;101092.44;;;6.13;81.54
12360;BME280;6244;51.460;7.090;2023-02-02T04:30:57;101091.59;;;6.12;82.00
12360;BME280;6244;51.460;7.090;2023-02-02T04:35:54;101081.16;;;6.12;82.08
12360;BME280;6244;51.460;7.090;2023-02-02T04:40:51;101082.91;;;6.12;81.85
12360;BME280;6244;51.460;7.090;2023-02-02T04:45:47;101088.09;;;6.13;81.83
12360;BME280;6244;51.460;7.090;2023-02-02T04:50:45;101091.44;;;6.17;82.17
12360;BME280;6244;51.460;7.090;2023-02-02T04:55:42;101096.63;;;6.18;82.27
12360;BME280;6244;51.460;7.090;2023-02-02T05:00:38;101081.88;;;6.17;82.36
12360;BME280;6244;51.460;7.090;2023-02-02T05:05:35;101085.34;;;6.18;81.91
12360;BME280;6244;51.460;7.090;2023-02-02T05:10:33;101086.16;;;6.22;82.42
12360;BME280;6244;51.460;7.090;2023-02-02T05:15:29;101089.56;;;6.24;82.24
12360;BME280;6244;51.460;7.090;2023-02-02T05:20:26;101080.09;;;6.19;82.26
12360;BME280;6244;51.460;7.090;2023-02-02T05:25:22;101086.09;;;6.23;82.59
12360;BME280;6244;51.460;7.090;2023-02-02T05:30:20;101091.28;;;6.25;82.46
12360;BME280;6244;51.460;7.090;2023-02-02T05:35:17;101082.59;;;6.24;82.56
12360;BME280;6244;51.460;7.090;2023-02-02T05:40:13;101085.06;;;6.29;82.47
12360;BME280;6244;51.460;7.090;2023-02-02T05:45:10;101095.50;;;6.29;82.51
12360;BME280;6244;51.460;7.090;2023-02-02T05:50:09;101098.06;;;6.30;82.78
12360;BME280;6244;51.460;7.090;2023-02-02T05:55:06;101086.72;;;6.31;82.76
12360;BME280;6244;51.460;7.090;2023-02-02T06:00:04;101095.41;;;6.32;82.38
12360;BME280;6244;51.460;7.090;2023-02-02T06:05:01;101103.16;;;6.35;82.38
12360;BME280;6244;51.460;7.090;2023-02-02T06:09:59;101104.88;;;6.36;82.54
12360;BME280;6244;51.460;7.090;2023-02-02T06:14:55;101107.47;;;6.36;82.42
12360;BME280;6244;51.460;7.090;2023-02-02T06:19:52;101109.16;;;6.38;82.43
12360;BME280;6244;51.460;7.090;2023-02-02T06:24:48;101113.56;;;6.36;82.40
12360;BME280;6244;51.460;7.090;2023-02-02T06:29:48;101112.66;;;6.37;82.78
12360;BME280;6244;51.460;7.090;2023-02-02T06:34:45;101116.91;;;6.40;82.40
12360;BME280;6244;51.460;7.090;2023-02-02T06:39:41;101116.91;;;6.40;82.83
12360;BME280;6244;51.460;7.090;2023-02-02T06:44:38;101117.78;;;6.40;82.58
12360;BME280;6244;51.460;7.090;2023-02-02T06:49:36;101127.31;;;6.41;82.71
12360;BME280;6244;51.460;7.090;2023-02-02T06:54:32;101132.50;;;6.41;82.37
12360;BME280;6244;51.460;7.090;2023-02-02T06:59:29;101136.84;;;6.42;82.79
12360;BME280;6244;51.460;7.090;2023-02-02T07:04:25;101123.78;;;6.42;82.33
12360;BME280;6244;51.460;7.090;2023-02-02T07:09:23;101148.06;;;6.44;82.59
12360;BME280;6244;51.460;7.090;2023-02-02T07:14:19;101146.34;;;6.45;82.67
12360;BME280;6244;51.460;7.090;2023-02-02T07:19:16;101138.47;;;6.46;82.76
12360;BME280;6244;51.460;7.090;2023-02-02T07:24:12;101150.66;;;6.46;82.37
12360;BME280;6244;51.460;7.090;2023-02-02T07:29:12;101154.94;;;6.48;82.25
12360;BME280;6244;51.460;7.090;2023-02-02T07:34:09;101161.81;;;6.51;82.31
12360;BME280;6244;51.460;7.090;2023-02-02T07:39:05;101172.25;;;6.51;82.26
12360;BME280;6244;51.460;7.090;2023-02-02T07:44:02;101161.78;;;6.53;82.29
12360;BME280;6244;51.460;7.090;2023-02-02T07:49:00;101166.97;;;6.53;82.81
12360;BME280;6244;51.460;7.090;2023-02-02T07:53:57;101169.63;;;6.51;82.75
12360;BME280;6244;51.460;7.090;2023-02-02T07:58:55;101168.78;;;6.51;82.74
12360;BME280;6244;51.460;7.090;2023-02-02T08:03:52;101168.78;;;6.51;82.45
12360;BME280;6244;51.460;7.090;2023-02-02T08:08:51;101180.81;;;6.55;82.62
12360;BME280;6244;51.460;7.090;2023-02-02T08:13:48;101186.03;;;6.55;82.75
12360;BME280;6244;51.460;7.090;2023-02-02T08:18:45;101203.41;;;6.56;82.77
12360;BME280;6244;51.460;7.090;2023-02-02T08:23:42;101191.22;;;6.56;82.69
12360;BME280;6244;51.460;7.090;2023-02-02T08:28:42;101200.75;;;6.57;82.67
12360;BME280;6244;51.460;7.090;2023-02-02T08:33:39;101210.31;;;6.58;82.60
12360;BME280;6244;51.460;7.090;2023-02-02T08:38:35;101204.25;;;6.58;82.54
12360;BME280;6244;51.460;7.090;2023-02-02T08:43:32;101214.66;;;6.58;82.46
12360;BME280;6244;51.460;7.090;2023-02-02T08:48:30;101222.44;;;6.59;82.60
12360;BME280;6244;51.460;7.090;2023-02-02T08:53:27;101218.13;;;6.58;82.43
12360;BME280;6244;51.460;7.090;2023-02-02T08:58:24;101233.78;;;6.58;82.60
12360;BME280;6244;51.460;7.090;2023-02-02T09:03:21;101227.72;;;6.58;82.77
12360;BME280;6244;51.460;7.090;2023-02-02T09:08:18;101246.78;;;6.60;82.96
12360;BME280;6244;51.460;7.090;2023-02-02T09:13:15;101247.59;;;6.62;82.56
12360;BME280;6244;51.460;7.090;2023-02-02T09:18:11;101258.81;;;6.64;82.65
12360;BME280;6244;51.460;7.090;2023-02-02T09:23:08;101271.91;;;6.62;82.76
12360;BME280;6244;51.460;7.090;2023-02-02T09:28:06;101270.16;;;6.63;82.91
12360;BME280;6244;51.460;7.090;2023-02-02T09:33:03;101283.16;;;6.64;82.60
12360;BME280;6244;51.460;7.090;2023-02-02T09:38:00;101280.53;;;6.64;83.07
12360;BME280;6244;51.460;7.090;2023-02-02T09:43:01;101305.63;;;6.68;82.77
12360;BME280;6244;51.460;7.090;2023-02-02T09:48:10;101304.78;;;6.68;83.03
12360;BME280;6244;51.460;7.090;2023-02-02T09:53:18;101323.00;;;6.69;82.68
12360;BME280;6244;51.460;7.090;2023-02-02T09:58:19;101336.03;;;6.71;82.67
12360;BME280;6244;51.460;7.090;2023-02-02T10:03:20;101334.28;;;6.71;83.12
12360;BME280;6244;51.460;7.090;2023-02-02T10:08:24;101337.75;;;6.72;82.90
12360;BME280;6244;51.460;7.090;2023-02-02T10:13:25;101338.66;;;6.69;83.18
12360;BME280;6244;51.460;7.090;2023-02-02T10:18:35;101343.81;;;6.72;83.00
12360;BME280;6244;51.460;7.090;2023-02-02T10:23:35;101355.09;;;6.73;82.93
12360;BME280;6244;51.460;7.090;2023-02-02T10:28:41;101352.50;;;6.73;83.17
12360;BME280;6244;51.460;7.090;2023-02-02T10:33:39;101359.50;;;6.71;82.78
12360;BME280;6244;51.460;7.090;2023-02-02T10:38:40;101361.13;;;6.75;83.07
12360;BME280;6244;51.460;7.090;2023-02-02T10:43:57;101362.00;;;6.75;82.82
12360;BME280;6244;51.460;7.090;2023-02-02T10:49:09;101375.84;;;6.77;83.05
12360;BME280;6244;51.460;7.090;2023-02-02T10:54:23;101354.97;;;6.77;83.00
12360;BME280;6244;51.460;7.090;2023-02-02T10:59:26;101361.06;;;6.78;83.02
12360;BME280;6244;51.460;7.090;2023-02-02T11:04:27;101374.06;;;6.80;83.24
12360;BME280;6244;51.460;7.090;2023-02-02T11:09:42;101370.53;;;6.81;82.96
12360;BME280;6244;51.460;7.090;2023-02-02T11:14:40;101371.41;;;6.81;83.01
12360;BME280;6244;51.460;7.090;2023-02-02T11:19:40;101376.63;;;6.83;82.93
12360;BME280;6244;51.460;7.090;2023-02-02T11:24:40;101377.44;;;6.85;83.22
12360;BME280;6244;51.460;7.090;2023-02-02T11:29:41;101379.19;;;6.84;83.12
12360;BME280;6244;51.460;7.090;2023-02-02T11:34:41;101374.00;;;6.83;83.31
12360;BME280;6244;51.460;7.090;2023-02-02T11:39:38;101363.50;;;6.86;82.88
12360;BME280;6244;51.460;7.090;2023-02-02T11:44:37;101376.44;;;6.89;83.37
12360;BME280;6244;51.460;7.090;2023-02-02T11:49:42;101364.34;;;6.86;83.11
12360;BME280;6244;51.460;7.090;2023-02-02T11:54:39;101363.38;;;6.90;83.13
12360;BME280;6244;51.460;7.090;2023-02-02T11:59:42;101356.38;;;6.91;82.73
12360;BME280;6244;51.460;7.090;2023-02-02T12:04:39;101369.41;;;6.92;83.01
12360;BME280;6244;51.460;7.090;2023-02-02T12:09:37;101359.91;;;6.90;83.13
12360;BME280;6244;51.460;7.090;2023-02-02T12:14:40;101365.00;;;6.94;83.13
12360;BME280;6244;51.460;7.090;2023-02-02T12:19:54;101380.66;;;6.94;83.02
12360;BME280;6244;51.460;7.090;2023-02-02T12:25:02;101371.06;;;6.96;82.95
12360;BME280;6244;51.460;7.090;2023-02-02T12:30:21;101374.56;;;6.95;83.04
12360;BME280;6244;51.460;7.090;2023-02-02T12:35:34;101384.09;;;6.96;82.85
12360;BME280;6244;51.460;7.090;2023-02-02T12:40:45;101383.22;;;6.97;82.64
12360;BME280;6244;51.460;7.090;2023-02-02T12:51:27;101375.34;;;6.99;82.72
12360;BME280;6244;51.460;7.090;2023-02-02T12:56:35;101379.69;;;6.98;82.64
12360;BME280;6244;51.460;7.090;2023-02-02T13:01:45;101365.88;;;6.95;82.68
12360;BME280;6244;51.460;7.090;2023-02-02T13:07:08;101369.31;;;6.97;83.03
12360;BME280;6244;51.460;7.090;2023-02-02T13:12:08;101373.59;;;6.99;82.83
12360;BME280;6244;51.460;7.090;2023-02-02T13:17:11;101377.09;;;6.98;83.10
12360;BME280;6244;51.460;7.090;2023-02-02T13:22:12;101374.44;;;7.00;82.85
12360;BME280;6244;51.460;7.090;2023-02-02T13:27:16;101382.22;;;7.01;82.79
12360;BME280;6244;51.460;7.090;2023-02-02T13:32:20;101388.25;;;7.03;83.17
12360;BME280;6244;51.460;7.090;2023-02-02T13:37:25;101392.56;;;7.04;82.92
12360;BME280;6244;51.460;7.090;2023-02-02T13:42:33;101396.09;;;7.03;82.89
12360;BME280;6244;51.460;7.090;2023-02-02T13:47:40;101396.00;;;7.06;83.02
12360;BME280;6244;51.460;7.090;2023-02-02T13:53:00;101393.44;;;7.05;82.80
12360;BME280;6244;51.460;7.090;2023-02-02T13:58:25;101399.56;;;7.04;83.05
12360;BME280;6244;51.460;7.090;2023-02-02T14:03:32;101400.38;;;7.06;82.81
12360;BME280;6244;51.460;7.090;2023-02-02T14:08:33;101397.88;;;7.01;83.16
12360;BME280;6244;51.460;7.090;2023-02-02T14:13:36;101388.16;;;7.08;82.83
12360;BME280;6244;51.460;7.090;2023-02-02T14:18:58;101398.59;;;7.08;83.15
12360;BME280;6244;51.460;7.090;2023-02-02T14:23:55;101400.28;;;7.11;83.37
12360;BME280;6244;51.460;7.090;2023-02-02T14:28:53;101409.84;;;7.10;83.33
12360;BME280;6244;51.460;7.090;2023-02-02T14:33:49;101415.13;;;7.09;83.33
12360;BME280;6244;51.460;7.090;2023-02-02T14:39:11;101425.50;;;7.10;83.34
12360;BME280;6244;51.460;7.090;2023-02-02T14:44:14;101417.66;;;7.12;83.04
12360;BME280;6244;51.460;7.090;2023-02-02T14:49:14;101412.41;;;7.12;82.97
12360;BME280;6244;51.460;7.090;2023-02-02T14:54:19;101414.13;;;7.13;83.12
12360;BME280;6244;51.460;7.090;2023-02-02T14:59:22;101430.66;;;7.13;83.35
12360;BME280;6244;51.460;7.090;2023-02-02T15:04:24;101454.09;;;7.15;83.52
12360;BME280;6244;51.460;7.090;2023-02-02T15:09:39;101445.44;;;7.13;83.16
12360;BME280;6244;51.460;7.090;2023-02-02T15:14:40;101448.97;;;7.12;82.97
12360;BME280;6244;51.460;7.090;2023-02-02T15:19:39;101453.44;;;7.05;83.67
12360;BME280;6244;51.460;7.090;2023-02-02T15:24:39;101452.38;;;7.14;83.29
12360;BME280;6244;51.460;7.090;2023-02-02T15:29:40;101459.31;;;7.15;83.38
12360;BME280;6244;51.460;7.090;2023-02-02T15:34:41;101458.41;;;7.16;83.31
12360;BME280;6244;51.460;7.090;2023-02-02T15:39:40;101468.84;;;7.16;83.22
12360;BME280;6244;51.460;7.090;2023-02-02T15:44:40;101467.09;;;7.16;83.56
12360;BME280;6244;51.460;7.090;2023-02-02T15:49:36;101472.28;;;7.18;83.55
12360;BME280;6244;51.460;7.090;2023-02-02T15:54:34;101471.47;;;7.16;83.30
12360;BME280;6244;51.460;7.090;2023-02-02T15:59:37;101475.75;;;7.18;83.17
12360;BME280;6244;51.460;7.090;2023-02-02T16:04:37;101474.84;;;7.19;83.32
12360;BME280;6244;51.460;7.090;2023-02-02T16:09:34;101481.81;;;7.19;83.26
12360;BME280;6244;51.460;7.090;2023-02-02T16:14:31;101490.50;;;7.19;83.19
12360;BME280;6244;51.460;7.090;2023-02-02T16:19:33;101487.91;;;7.19;83.07
12360;BME280;6244;51.460;7.090;2023-02-02T16:24:33;101488.78;;;7.20;83.63
12360;BME280;6244;51.460;7.090;2023-02-02T16:29:32;101490.50;;;7.19;83.29
12360;BME280;6244;51.460;7.090;2023-02-02T16:34:43;101497.50;;;7.19;83.55
12360;BME280;6244;51.460;7.090;2023-02-02T16:39:42;101491.41;;;7.18;83.33
12360;BME280;6244;51.460;7.090;2023-02-02T16:44:40;101514.00;;;7.19;83.33
12360;BME280;6244;51.460;7.090;2023-02-02T16:49:38;101516.66;;;7.18;83.50
12360;BME280;6244;51.460;7.090;2023-02-02T16:54:35;101524.44;;;7.19;83.87
12360;BME280;6244;51.460;7.090;2023-02-02T16:59:34;101521.88;;;7.18;83.68
12360;BME280;6244;51.460;7.090;2023-02-02T17:04:32;101530.59;;;7.17;83.65
12360;BME280;6244;51.460;7.090;2023-02-02T17:09:31;101541.00;;;7.18;83.98
12360;BME280;6244;51.460;7.090;2023-02-02T17:14:31;101541.00;;;7.20;84.03
12360;BME280;6244;51.460;7.090;2023-02-02T17:19:30;101522.72;;;7.20;83.88
12360;BME280;6244;51.460;7.090;2023-02-02T17:24:28;101535.78;;;7.20;83.94
12360;BME280;6244;51.460;7.090;2023-02-02T17:29:24;101545.28;;;7.22;83.97
12360;BME280;6244;51.460;7.090;2023-02-02T17:34:21;101543.53;;;7.23;83.66
12360;BME280;6244;51.460;7.090;2023-02-02T17:39:19;101553.97;;;7.23;84.01
12360;BME280;6244;51.460;7.090;2023-02-02T17:44:16;101552.13;;;7.26;83.90
12360;BME280;6244;51.460;7.090;2023-02-02T17:49:12;101553.41;;;7.47;84.48
12360;BME280;6244;51.460;7.090;2023-02-02T17:54:10;101548.63;;;7.64;84.20
12360;BME280;6244;51.460;7.090;2023-02-02T17:59:08;101545.66;;;7.78;84.32
12360;BME280;6244;51.460;7.090;2023-02-02T18:04:06;101556.69;;;7.89;84.46
12360;BME280;6244;51.460;7.090;2023-02-02T18:09:05;101553.91;;;7.97;84.20
12360;BME280;6244;51.460;7.090;2023-02-02T18:14:02;101555.44;;;8.04;84.34
12360;BME280;6244;51.460;7.090;2023-02-02T18:19:00;101557.09;;;8.08;84.71
12360;BME280;6244;51.460;7.090;2023-02-02T18:23:57;101547.50;;;8.09;84.66
12360;BME280;6244;51.460;7.090;2023-02-02T18:28:53;101556.06;;;8.14;85.05
12360;BME280;6244;51.460;7.090;2023-02-02T18:33:50;101555.28;;;8.10;84.83
12360;BME280;6244;51.460;7.090;2023-02-02T18:38:50;101556.09;;;8.12;84.58
12360;BME280;6244;51.460;7.090;2023-02-02T18:43:48;101554.34;;;8.13;84.72
12360;BME280;6244;51.460;7.090;2023-02-02T18:48:46;101552.59;;;8.13;84.74
12360;BME280;6244;51.460;7.090;2023-02-02T18:53:44;101544.75;;;8.13;84.54
12360;BME280;6244;51.460;7.090;2023-02-02T18:58:43;101549.13;;;8.13;85.17
12360;BME280;6244;51.460;7.090;2023-02-02T19:03:40;101545.59;;;8.14;84.79
12360;BME280;6244;51.460;7.090;2023-02-02T19:08:37;101537.72;;;8.15;84.75
12360;BME280;6244;51.460;7.090;2023-02-02T19:13:35;101535.97;;;8.16;84.89
12360;BME280;6244;51.460;7.090;2023-02-02T19:18:33;101554.22;;;8.17;84.61
12360;BME280;6244;51.460;7.090;2023-02-02T19:23:29;101540.31;;;8.15;84.98
12360;BME280;6244;51.460;7.090;2023-02-02T19:28:28;101549.94;;;8.15;84.76
12360;BME280;6244;51.460;7.090;2023-02-02T19:33:33;101556.97;;;8.13;84.90
12360;BME280;6244;51.460;7.090;2023-02-02T19:38:34;101558.72;;;8.12;84.87
12360;BME280;6244;51.460;7.090;2023-02-02T19:43:30;101559.63;;;8.11;84.90
12360;BME280;6244;51.460;7.090;2023-02-02T19:48:33;101557.81;;;8.13;85.06
12360;BME280;6244;51.460;7.090;2023-02-02T19:53:34;101557.81;;;8.13;85.09
12360;BME280;6244;51.460;7.090;2023-02-02T19:58:33;101549.97;;;8.13;84.96
12360;BME280;6244;51.460;7.090;2023-02-02T20:03:39;101566.53;;;8.14;85.03
12360;BME280;6244;51.460;7.090;2023-02-02T20:08:39;101554.34;;;8.13;84.80
12360;BME280;6244;51.460;7.090;2023-02-02T20:13:40;101551.78;;;8.11;84.92
12360;BME280;6244;51.460;7.090;2023-02-02T20:18:43;101539.59;;;8.10;84.87
12360;BME280;6244;51.460;7.090;2023-02-02T20:23:42;101543.13;;;8.09;84.82
12360;BME280;6244;51.460;7.090;2023-02-02T20:28:41;101545.78;;;8.08;85.33
12360;BME280;6244;51.460;7.090;2023-02-02T20:33:42;101541.47;;;8.07;85.03
12360;BME280;6244;51.460;7.090;2023-02-02T20:38:39;101550.16;;;8.06;84.68
12360;BME280;6244;51.460;7.090;2023-02-02T20:43:36;101543.22;;;8.06;84.87
12360;BME280;6244;51.460;7.090;2023-02-02T20:48:32;101535.38;;;8.05;85.26
12360;BME280;6244;51.460;7.090;2023-02-02T20:53:30;101544.97;;;8.04;84.87
12360;BME280;6244;51.460;7.090;2023-02-02T20:58:27;101540.66;;;8.03;85.10
12360;BME280;6244;51.460;7.090;2023-02-02T21:03:24;101549.41;;;8.02;85.02
12360;BME280;6244;51.460;7.090;2023-02-02T21:08:20;101558.91;;;8.05;84.78
12360;BME280;6244;51.460;7.090;2023-02-02T21:13:18;101566.75;;;8.05;84.89
12360;BME280;6244;51.460;7.090;2023-02-02T21:18:15;101569.50;;;8.00;85.15
12360;BME280;6244;51.460;7.090;2023-02-02T21:23:11;101586.81;;;8.04;84.77
12360;BME280;6244;51.460;7.090;2023-02-02T21:28:08;101603.34;;;8.05;85.06
12360;BME280;6244;51.460;7.090;2023-02-02T21:33:06;101605.09;;;8.04;84.70
12360;BME280;6244;51.460;7.090;2023-02-02T21:38:08;101598.16;;;8.03;84.54
12360;BME280;6244;51.460;7.090;2023-02-02T21:43:12;101606.91;;;8.02;84.97
12360;BME280;6244;51.460;7.090;2023-02-02T21:48:25;101610.38;;;8.03;84.89
12360;BME280;6244;51.460;7.090;2023-02-02T21:53:24;101595.53;;;8.03;84.89
12360;BME280;6244;51.460;7.090;2023-02-02T21:58:22;101582.47;;;8.03;84.93
12360;BME280;6244;51.460;7.090;2023-02-02T22:03:33;101563.38;;;8.01;84.76
12360;BME280;6244;51.460;7.090;2023-02-02T22:08:34;101565.16;;;7.99;84.64
12360;BME280;6244;51.460;7.090;2023-02-02T22:13:33;101568.56;;;8.03;84.90
12360;BME280;6244;51.460;7.090;2023-02-02T22:18:34;101566.94;;;7.99;84.68
12360;BME280;6244;51.460;7.090;2023-02-02T22:23:30;101570.41;;;7.99;84.42
12360;BME280;6244;51.460;7.090;2023-02-02T22:28:31;101570.44;;;7.98;84.83
12360;BME280;6244;51.460;7.090;2023-02-02T22:33:28;101559.16;;;7.95;84.85
12360;BME280;6244;51.460;7.090;2023-02-02T22:38:26;101573.09;;;7.96;84.74
12360;BME280;6244;51.460;7.090;2023-02-02T22:43:22;101558.31;;;7.95;84.63
12360;BME280;6244;51.460;7.090;2023-02-02T22:48:19;101565.28;;;7.94;84.80
12360;BME280;6244;51.460;7.090;2023-02-02T22:53:15;101557.41;;;7.96;84.88
12360;BME280;6244;51.460;7.090;2023-02-02T22:58:13;101562.59;;;7.98;84.46
12360;BME280;6244;51.460;7.090;2023-02-02T23:03:10;101562.56;;;7.99;84.80
12360;BME280;6244;51.460;7.090;2023-02-02T23:08:06;101541.66;;;7.99;84.34
12360;BME280;6244;51.460;7.090;2023-02-02T23:13:03;101549.53;;;7.98;84.36
12360;BME280;6244;51.460;7.090;2023-02-02T23:18:02;101546.88;;;7.99;84.38
12360;BME280;6244;51.460;7.090;2023-02-02T23:22:59;101555.53;;;8.01;84.39
12360;BME280;6244;51.460;7.090;2023-02-02T23:27:55;101548.50;;;8.03;84.46
12360;BME280;6244;51.460;7.090;2023-02-02T23:32:52;101541.47;;;8.07;84.44
12360;BME280;6244;51.460;7.090;2023-02-02T23:37:50;101534.47;;;8.07;84.25
12360;BME280;6244;51.460;7.090;2023-02-02T23:42:46;101525.72;;;8.08;84.04
12360;BME280;6244;51.460;7.090;2023-02-02T23:47:43;101521.41;;;8.07;84.34
12360;BME280;6244;51.460;7.090;2023-02-02T23:52:39;101517.88;;;8.08;84.19
12360;BME280;6244;51.460;7.090;2023-02-02T23:57:37;101507.50;;;8.05;84.10
